Hauptseite
METAR-TAF:

METAR-TAF

Flughäfen :

Flugplatz Locarno

Locarno, Schweiz

Breite: 46-09-55N, Länge: 8-52-40E, Höhe: 198 m

Beobachtung

Neuester Wetterbericht von vor 24 Minuten, um 09:50 UTC
Wind 1 kt aus unterschiedlichen Richtungen
Temperatur 11°C
Luftfeuchtigkeit 71%
Luftdruck 1028 hPa
Sichtweite 10 km oder mehr
Leicht bewölkt in der Höhe von 1500 ft
Geschlossene Wolkendecke in der Höhe von 5500 ft

METAR: LSZL 160950Z VRB01KT 9999 FEW015 OVC055 11/06 Q1028 RMK BLU

Zeit: 11:14 (10:14 UTC)

Prognose

Neuester Wetterbericht von vor 4 Stunden und 49 Minuten, um 05:25 UTC
Gültige Prognose vom 16 um 06 UTC bis 16 um 15 UTC
Wind 4 kt aus Ost/Nordost
Sichtweite 10 km oder mehr
Geschlossene Wolkendecke in der Höhe von 4000 ft

TAF: LSZL 160525Z 1606/1615 07004KT 9999 OVC040

Wetterbeobachtungen und Prognosen von mehr als 4000 Flughäfen (METAR und TAF Bericht).

Die verfügbaren Stationen werden durch gelbe und rote Markierungen auf der Karte dargestellt.

Führen Sie die Maus auf sie, um den Namen der Station zu sehen.

Darauf klicken, um die Beobachtung von Wetterbeobachtungen und Prognosen zu sehen.

Um die Karte zu ändern : klicken Sie auf den grünen Tasten mit einem schwarzen Kreuz Zum Vergrößern, auf den grünen Button mit einem Gedankenstrich zu verkleinern, oder auf die grünen Pfeile für benachbarte Karten.


METAR-TAF: